Time;durP1;ratioP1;P1;durP2;ratioP2;P2;SDS_P1;SDS_P2;PMS_P1;PMS_P2;Temp;Humidity;BMP_temperature;BMP_pressure;BME280_temperature;BME280_humidity;BME280_pressure;Samples;Min_cycle;Max_cycle;Signal;HPM_P1;HPM_P2
2020/12/05 00:01:18;;;;;;;36.58;20.55;;;;;;;5.70;74.63;98334.59;5077476;28;20198;-53
2020/12/05 00:03:44;;;;;;;32.50;18.13;;;;;;;5.65;75.16;98344.25;5078104;28;20044;-53
2020/12/05 00:06:09;;;;;;;40.03;21.33;;;;;;;5.74;74.79;98354.38;5077689;28;20044;-53
2020/12/05 00:08:35;;;;;;;37.85;20.73;;;;;;;5.73;74.60;98363.94;5077813;28;20440;-53
2020/12/05 00:11:01;;;;;;;36.40;19.38;;;;;;;5.66;74.77;98367.59;5076628;28;20082;-53
2020/12/05 00:13:27;;;;;;;55.15;24.25;;;;;;;5.64;74.67;98366.78;5076865;28;20052;-53
2020/12/05 00:15:53;;;;;;;49.78;24.27;;;;;;;5.69;74.80;98374.44;5077631;28;20079;-53
2020/12/05 00:18:19;;;;;;;50.78;22.60;;;;;;;5.66;74.84;98364.16;5077425;28;20052;-54
2020/12/05 00:20:45;;;;;;;80.82;36.17;;;;;;;5.68;74.56;98367.56;5077548;28;20044;-53
2020/12/05 00:23:12;;;;;;;83.97;33.97;;;;;;;5.62;74.47;98368.56;5076650;28;20044;-53
2020/12/05 00:25:41;;;;;;;65.68;29.83;;;;;;;5.59;74.09;98376.47;5077126;28;20123;-53
2020/12/05 00:28:07;;;;;;;51.97;26.00;;;;;;;5.49;74.36;98383.66;5059915;28;20140;-53
2020/12/05 00:30:33;;;;;;;44.38;23.38;;;;;;;5.39;74.14;98377.00;5077387;28;20052;-53
2020/12/05 00:33:02;;;;;;;44.15;25.20;;;;;;;5.39;73.87;98377.88;5059937;28;20067;-53
2020/12/05 00:35:28;;;;;;;55.58;26.33;;;;;;;5.26;73.76;98371.25;5077581;28;20340;-53
2020/12/05 00:37:57;;;;;;;92.47;41.88;;;;;;;5.21;73.59;98369.72;5076924;28;20044;-53
2020/12/05 00:40:23;;;;;;;119.00;50.20;;;;;;;5.11;73.85;98369.94;5077177;28;20059;-53
2020/12/05 00:42:49;;;;;;;125.30;49.20;;;;;;;5.10;73.85;98362.19;5076887;28;20036;-53
2020/12/05 00:45:15;;;;;;;106.18;43.20;;;;;;;5.07;74.14;98363.13;5076992;28;20040;-53
2020/12/05 00:47:41;;;;;;;139.13;54.55;;;;;;;5.04;74.17;98360.63;5076108;28;20048;-53
2020/12/05 00:50:08;;;;;;;151.40;62.20;;;;;;;5.00;74.11;98358.97;5076677;28;20051;-53
2020/12/05 00:52:34;;;;;;;203.30;81.47;;;;;;;4.95;74.50;98360.84;5077149;28;20056;-53
2020/12/05 00:54:59;;;;;;;200.20;81.53;;;;;;;4.90;74.77;98353.16;5075791;28;20365;-53
2020/12/05 00:57:27;;;;;;;93.82;42.65;;;;;;;4.90;74.94;98363.53;5075993;28;20044;-53
2020/12/05 00:59:53;;;;;;;55.50;29.25;;;;;;;4.90;75.28;98367.88;5075929;28;20102;-53
2020/12/05 01:02:18;;;;;;;41.20;25.02;;;;;;;4.93;75.02;98358.28;5076309;28;20056;-53
2020/12/05 01:04:44;;;;;;;32.63;17.75;;;;;;;4.89;75.43;98359.25;5075488;28;20056;-53
2020/12/05 01:07:10;;;;;;;32.22;19.40;;;;;;;4.96;75.22;98353.91;5075506;28;20040;-53
2020/12/05 01:09:36;;;;;;;30.95;17.33;;;;;;;4.95;75.45;98354.81;5076398;28;20052;-53
2020/12/05 01:12:01;;;;;;;31.05;16.98;;;;;;;4.91;75.60;98354.03;5076621;28;20054;-53
2020/12/05 01:14:27;;;;;;;35.05;19.17;;;;;;;4.89;75.48;98348.03;5076231;28;20043;-53
2020/12/05 01:16:53;;;;;;;35.25;20.20;;;;;;;4.72;76.66;98356.22;5077385;28;20443;-53
2020/12/05 01:19:19;;;;;;;37.28;20.77;;;;;;;4.77;76.42;98343.97;5075577;28;20049;-53
2020/12/05 01:21:45;;;;;;;28.90;19.08;;;;;;;4.82;76.01;98339.53;5076238;28;20110;-53
2020/12/05 01:24:11;;;;;;;30.10;17.17;;;;;;;4.82;75.82;98334.34;5076426;28;20053;-54
2020/12/05 01:26:37;;;;;;;26.75;15.50;;;;;;;4.77;76.17;98340.53;5075833;28;20041;-53
2020/12/05 01:29:03;;;;;;;29.25;17.38;;;;;;;4.72;76.17;98339.81;5075319;28;20048;-53
2020/12/05 01:31:28;;;;;;;32.03;16.20;;;;;;;4.72;76.32;98330.28;5075526;28;20045;-53
2020/12/05 01:33:54;;;;;;;24.67;14.25;;;;;;;4.75;76.19;98342.34;5076097;28;20049;-55
2020/12/05 01:36:20;;;;;;;29.48;15.32;;;;;;;4.69;76.44;98335.56;5076280;28;20048;-53
2020/12/05 01:38:46;;;;;;;35.60;17.75;;;;;;;4.49;77.43;98325.66;5076336;28;20064;-53
2020/12/05 01:41:12;;;;;;;30.75;16.85;;;;;;;4.51;77.25;98320.44;5075997;28;20347;-53
2020/12/05 01:43:40;;;;;;;31.25;17.42;;;;;;;4.55;76.91;98320.34;5075458;28;20048;-53
2020/12/05 01:46:06;;;;;;;29.52;15.00;;;;;;;4.60;76.53;98330.59;5076000;28;20067;-53
2020/12/05 01:48:33;;;;;;;25.92;15.48;;;;;;;4.54;76.20;98325.53;5076580;28;20040;-53
2020/12/05 01:50:59;;;;;;;29.23;15.10;;;;;;;4.44;76.35;98320.56;5075374;28;20067;-53
2020/12/05 01:53:24;;;;;;;26.75;15.48;;;;;;;4.33;76.89;98312.22;5075327;28;20052;-54
2020/12/05 01:55:50;;;;;;;30.67;15.93;;;;;;;4.31;77.03;98321.75;5076206;28;20053;-55
2020/12/05 01:58:16;;;;;;;30.13;15.20;;;;;;;4.26;77.42;98326.22;5075839;28;20048;-53
2020/12/05 02:00:43;;;;;;;28.13;17.33;;;;;;;4.33;77.34;98326.91;5076099;28;20060;-54
2020/12/05 02:03:08;;;;;;;33.88;18.52;;;;;;;4.17;77.52;98345.41;5075662;28;20056;-53
2020/12/05 02:05:56;;;;;;;26.77;15.35;;;;;;;4.21;77.08;98339.25;5075163;28;20132;-53
2020/12/05 02:08:38;;;;;;;30.67;17.63;;;;;;;4.08;77.87;98340.41;5076080;28;20044;-53
2020/12/05 02:11:03;;;;;;;29.75;15.98;;;;;;;4.20;77.25;98332.38;5076014;28;20079;-54
2020/12/05 02:13:33;;;;;;;36.05;19.20;;;;;;;4.19;77.62;98328.09;5075106;28;20429;-53
2020/12/05 02:15:59;;;;;;;26.83;15.95;;;;;;;4.24;77.73;98327.97;5075932;28;20044;-53
2020/12/05 02:18:25;;;;;;;26.65;16.45;;;;;;;4.36;77.93;98322.50;5075949;28;20121;-53
2020/12/05 02:20:52;;;;;;;29.15;17.08;;;;;;;4.48;78.16;98321.34;5061094;28;20051;-53
2020/12/05 02:23:18;;;;;;;29.92;17.05;;;;;;;4.65;78.34;98320.97;5078914;28;20059;-53
2020/12/05 02:25:52;;;;;;;28.42;15.20;;;;;;;4.72;78.64;98317.31;5079433;28;20058;-53
2020/12/05 02:28:18;;;;;;;27.50;15.57;;;;;;;4.81;78.95;98314.50;5062514;28;20045;-53
2020/12/05 02:30:45;;;;;;;26.88;14.80;;;;;;;5.00;78.69;98308.81;5079411;28;20056;-53
2020/12/05 02:33:11;;;;;;;25.25;14.90;;;;;;;5.06;78.90;98291.34;5079324;28;20451;-53
2020/12/05 02:35:36;;;;;;;26.05;15.00;;;;;;;5.26;78.63;98298.56;5080159;28;20052;-53
2020/12/05 02:38:22;;;;;;;30.98;15.35;;;;;;;5.42;78.21;98285.19;5079555;28;20057;-53
2020/12/05 02:40:49;;;;;;;25.73;14.32;;;;;;;5.53;78.31;98283.13;5078762;28;20049;-53
2020/12/05 02:43:15;;;;;;;30.45;16.15;;;;;;;5.53;78.21;98281.38;5062070;28;20059;-53
2020/12/05 02:45:41;;;;;;;24.58;13.07;;;;;;;5.65;77.94;98287.09;5079020;28;20044;-54
2020/12/05 02:48:07;;;;;;;26.85;14.48;;;;;;;5.81;77.45;98284.00;5078488;28;20058;-53
2020/12/05 02:50:33;;;;;;;23.77;13.45;;;;;;;5.82;77.34;98280.53;5045280;28;20049;-53
2020/12/05 02:52:59;;;;;;;29.83;15.25;;;;;;;5.92;76.98;98277.66;5078974;28;20056;-53
2020/12/05 02:55:25;;;;;;;24.20;13.75;;;;;;;6.02;76.66;98264.34;5078976;28;20166;-53
2020/12/05 02:57:50;;;;;;;21.40;12.40;;;;;;;6.11;76.31;98271.03;5079190;28;20075;-53
2020/12/05 03:00:16;;;;;;;24.58;13.82;;;;;;;6.21;76.05;98276.78;5078837;28;20064;-53
2020/12/05 03:02:42;;;;;;;20.80;13.80;;;;;;;6.23;76.04;98272.38;5078513;28;20056;-54
2020/12/05 03:05:08;;;;;;;24.75;14.05;;;;;;;6.33;75.89;98272.03;5078725;28;20040;-53
2020/12/05 03:07:33;;;;;;;22.27;13.10;;;;;;;6.35;75.90;98285.00;5078759;28;20049;-54
2020/12/05 03:09:59;;;;;;;19.73;11.63;;;;;;;6.36;75.80;98286.69;5079023;28;20130;-53
2020/12/05 03:12:25;;;;;;;23.42;12.90;;;;;;;6.37;75.59;98293.59;5078775;28;20060;-53
2020/12/05 03:14:51;;;;;;;23.52;12.57;;;;;;;6.59;74.81;98292.88;5078925;28;20049;-54
2020/12/05 03:17:16;;;;;;;19.13;12.00;;;;;;;6.58;74.87;98288.59;5078595;28;20041;-53
2020/12/05 03:19:42;;;;;;;20.45;11.77;;;;;;;6.71;74.12;98290.72;5078581;28;20318;-53
2020/12/05 03:22:08;;;;;;;22.33;12.02;;;;;;;6.75;74.16;98284.53;5078463;28;20041;-53
2020/12/05 03:24:34;;;;;;;19.65;11.75;;;;;;;6.74;74.11;98297.59;5077776;28;20059;-53
2020/12/05 03:26:59;;;;;;;20.92;11.20;;;;;;;6.79;73.77;98296.53;5078652;28;20052;-54
2020/12/05 03:29:25;;;;;;;22.85;12.30;;;;;;;6.80;74.06;98281.78;5078625;28;20449;-54
2020/12/05 03:34:17;;;;;;;21.00;11.57;;;;;;;6.84;73.69;98279.91;5078270;28;20344;-53
2020/12/05 03:36:43;;;;;;;21.67;12.38;;;;;;;6.82;73.33;98298.16;5078526;28;20048;-53
2020/12/05 03:39:09;;;;;;;20.65;12.50;;;;;;;6.81;73.68;98293.88;5078387;28;20059;-53
2020/12/05 03:41:35;;;;;;;20.27;12.90;;;;;;;6.86;73.60;98291.09;5078419;28;20044;-53
2020/12/05 03:44:00;;;;;;;26.50;16.63;;;;;;;6.90;73.49;98287.53;5078313;28;20053;-53
2020/12/05 03:46:26;;;;;;;23.83;15.48;;;;;;;6.84;73.20;98298.97;5077076;28;20090;-54
2020/12/05 03:48:52;;;;;;;27.77;16.95;;;;;;;6.99;73.11;98297.63;5077956;28;20055;-53
2020/12/05 03:51:18;;;;;;;27.40;16.85;;;;;;;7.05;73.23;98299.13;5078128;28;20037;-54
2020/12/05 03:53:44;;;;;;;33.72;21.15;;;;;;;7.06;73.24;98306.91;5077804;28;20138;-54
2020/12/05 03:56:11;;;;;;;38.20;22.80;;;;;;;7.24;72.84;98302.81;5078131;28;20056;-54
2020/12/05 03:58:38;;;;;;;33.85;18.83;;;;;;;7.15;73.15;98310.94;5077848;28;20102;-54
2020/12/05 04:01:05;;;;;;;59.65;26.10;;;;;;;7.37;72.23;98301.47;5077557;28;20070;-54
2020/12/05 04:03:30;;;;;;;40.95;17.15;;;;;;;7.38;72.15;98297.13;5077671;28;20353;-54
2020/12/05 04:05:56;;;;;;;31.25;17.45;;;;;;;7.44;72.20;98291.66;5077509;28;20041;-54
2020/12/05 04:08:22;;;;;;;40.08;18.23;;;;;;;7.39;72.28;98293.59;5077657;28;20049;-54
2020/12/05 04:10:48;;;;;;;27.83;16.02;;;;;;;7.57;71.72;98295.56;5077553;28;20052;-54
2020/12/05 04:13:13;;;;;;;34.33;17.50;;;;;;;7.61;71.92;98288.47;5076650;28;20040;-54
2020/12/05 04:15:39;;;;;;;22.65;12.10;;;;;;;7.67;71.23;98286.47;5077511;28;20113;-54
2020/12/05 04:18:05;;;;;;;21.45;13.27;;;;;;;7.63;71.63;98286.63;5077664;28;20049;-54
2020/12/05 04:20:30;;;;;;;26.70;13.65;;;;;;;7.68;71.20;98293.38;5077323;28;20452;-53
2020/12/05 04:22:57;;;;;;;24.48;11.48;;;;;;;7.67;71.45;98296.91;5076478;28;20040;-54
2020/12/05 04:25:23;;;;;;;28.95;14.45;;;;;;;7.77;71.13;98302.63;5077445;28;20048;-54
2020/12/05 04:27:49;;;;;;;23.88;13.32;;;;;;;7.98;70.23;98295.72;5077228;28;20436;-54
2020/12/05 04:30:15;;;;;;;29.05;15.25;;;;;;;7.89;70.73;98304.75;5077351;28;20052;-54
2020/12/05 04:32:41;;;;;;;21.08;11.85;;;;;;;7.95;70.37;98314.09;5076514;28;20059;-54
2020/12/05 04:35:07;;;;;;;28.73;14.15;;;;;;;8.03;69.88;98313.81;5077075;28;20048;-54
2020/12/05 04:37:32;;;;;;;33.72;16.83;;;;;;;7.97;70.14;98300.09;5077055;28;20048;-54
2020/12/05 04:39:58;;;;;;;21.90;12.98;;;;;;;8.07;69.71;98310.19;5076820;28;20052;-54
2020/12/05 04:42:24;;;;;;;19.38;11.38;;;;;;;8.07;69.76;98307.56;5076341;28;20053;-54
2020/12/05 04:44:50;;;;;;;19.48;11.95;;;;;;;8.13;69.51;98313.41;5076821;28;20433;-54
2020/12/05 04:47:16;;;;;;;21.83;12.55;;;;;;;8.29;69.19;98315.44;5059818;28;20048;-54
2020/12/05 04:49:42;;;;;;;22.25;12.23;;;;;;;8.35;68.98;98318.63;5076774;28;20194;-53
2020/12/05 04:52:24;;;;;;;23.95;14.18;;;;;;;8.34;68.67;98327.34;5076629;28;20345;-54
2020/12/05 04:54:54;;;;;;;25.95;14.43;;;;;;;8.32;69.21;98329.19;5076982;28;20055;-54
2020/12/05 04:57:22;;;;;;;27.90;15.55;;;;;;;8.31;69.10;98334.44;5076934;28;20052;-53
2020/12/05 04:59:49;;;;;;;46.10;21.15;;;;;;;8.40;68.66;98337.59;5076539;28;20083;-54
2020/12/05 05:02:15;;;;;;;51.60;23.23;;;;;;;8.50;68.27;98348.50;5042548;28;20052;-54
2020/12/05 05:04:41;;;;;;;33.08;17.33;;;;;;;8.59;67.96;98357.75;5076706;28;20113;-54
2020/12/05 05:07:07;;;;;;;47.00;20.50;;;;;;;8.64;67.79;98367.09;5076724;28;20387;-54
2020/12/05 05:09:32;;;;;;;32.30;15.65;;;;;;;8.67;67.81;98363.50;5076606;28;20044;-54
2020/12/05 05:11:58;;;;;;;36.45;19.05;;;;;;;8.88;66.68;98367.84;5075796;28;20078;-54
2020/12/05 05:14:31;;;;;;;29.55;15.95;;;;;;;8.94;66.66;98368.50;5076258;28;20060;-54
2020/12/05 05:17:04;;;;;;;;;;;;;;;8.72;67.21;98372.00;5043178;28;20136;-54
2020/12/05 05:19:30;;;;;;;23.50;13.95;;;;;;;8.87;66.98;98387.06;5076374;28;20007;-54
2020/12/05 05:21:55;;;;;;;41.47;19.55;;;;;;;8.88;67.03;98387.91;5058617;28;20101;-54
2020/12/05 05:24:21;;;;;;;19.92;11.95;;;;;;;8.92;67.00;98393.84;5058805;28;20070;-54
2020/12/05 05:26:58;;;;;;;24.90;12.80;;;;;;;9.04;66.29;98393.34;5075951;28;20044;-54
2020/12/05 05:29:26;;;;;;;21.42;11.27;;;;;;;9.06;66.46;98396.72;5076834;28;20049;-53
2020/12/05 05:32:01;;;;;;;32.75;17.25;;;;;;;8.99;66.62;98403.97;5076453;28;20068;-54
2020/12/05 05:34:27;;;;;;;25.33;13.27;;;;;;;9.09;66.02;98402.66;5075363;28;20428;-54
2020/12/05 05:36:53;;;;;;;31.42;15.55;;;;;;;9.11;66.33;98402.63;5076132;28;20102;-54
2020/12/05 05:39:19;;;;;;;66.10;25.90;;;;;;;9.06;66.27;98409.78;5076161;28;20053;-54
2020/12/05 05:41:54;;;;;;;103.38;42.28;;;;;;;9.07;66.41;98414.13;5076001;28;20052;-54
2020/12/05 05:44:27;;;;;;;127.40;51.13;;;;;;;9.01;66.27;98414.38;5076070;28;20106;-54
2020/12/05 05:46:52;;;;;;;99.97;40.58;;;;;;;9.08;66.36;98408.81;5076307;28;20045;-54
2020/12/05 05:49:31;;;;;;;87.20;36.15;;;;;;;9.00;66.00;98416.13;5075249;28;20132;-54
2020/12/05 05:52:01;;;;;;;94.03;39.50;;;;;;;8.87;66.48;98422.72;5076259;28;20114;-54
2020/12/05 05:54:31;;;;;;;55.90;29.92;;;;;;;8.88;66.69;98416.63;5077732;28;20044;-54
2020/12/05 05:57:03;;;;;;;45.85;26.98;;;;;;;8.85;66.83;98427.19;5079278;28;20051;-54
2020/12/05 05:59:33;;;;;;;60.38;32.15;;;;;;;8.89;66.33;98427.00;5080318;28;20148;-54
2020/12/05 06:01:59;;;;;;;52.90;27.10;;;;;;;8.86;66.37;98431.47;5046272;28;20110;-54
2020/12/05 06:04:27;;;;;;;84.65;48.08;;;;;;;8.78;67.03;98438.78;5079657;28;20337;-54
2020/12/05 06:06:53;;;;;;;42.03;27.38;;;;;;;8.69;66.96;98437.38;5079872;28;20047;-54
2020/12/05 06:09:42;;;;;;;68.00;27.73;;;;;;;8.63;67.44;98437.59;5080091;28;20325;-54
2020/12/05 06:12:11;;;;;;;54.75;23.75;;;;;;;8.72;67.06;98428.56;5080001;28;20075;-54
2020/12/05 06:14:40;;;;;;;27.63;16.13;;;;;;;8.70;66.94;98423.41;5079732;28;20060;-54
2020/12/05 06:17:07;;;;;;;44.50;24.48;;;;;;;8.65;66.95;98430.59;5062360;28;20083;-54
2020/12/05 06:19:33;;;;;;;61.85;31.80;;;;;;;8.53;67.38;98431.91;5079822;28;20060;-54
2020/12/05 06:21:59;;;;;;;58.90;34.28;;;;;;;8.49;67.29;98429.47;5079916;28;20055;-54
2020/12/05 06:24:43;;;;;;;123.07;76.18;;;;;;;8.46;67.56;98424.38;5079511;28;20059;-54
2020/12/05 06:27:09;;;;;;;98.78;44.97;;;;;;;8.48;67.78;98412.94;5079829;28;20056;-54
2020/12/05 06:29:38;;;;;;;40.72;20.75;;;;;;;8.45;67.48;98420.03;5078637;28;20045;-54
2020/12/05 06:32:04;;;;;;;62.05;33.47;;;;;;;8.50;67.42;98425.94;5079321;28;20357;-54
2020/12/05 06:34:33;;;;;;;174.57;85.57;;;;;;;8.42;67.43;98424.50;5078766;28;20045;-53
2020/12/05 06:36:58;;;;;;;285.83;126.18;;;;;;;8.35;67.80;98419.50;5079324;28;20048;-54
2020/12/05 06:39:24;;;;;;;271.73;118.97;;;;;;;8.27;68.15;98422.41;5079224;28;20326;-54
2020/12/05 06:41:51;;;;;;;71.53;35.88;;;;;;;8.31;67.96;98430.97;5078616;28;20052;-54
2020/12/05 06:44:22;;;;;;;41.83;22.65;;;;;;;8.33;67.87;98423.94;5079416;28;20044;-54
2020/12/05 06:47:01;;;;;;;40.83;22.25;;;;;;;8.27;67.73;98416.34;5079268;28;20044;-54
2020/12/05 06:49:39;;;;;;;28.45;16.80;;;;;;;8.27;67.94;98417.19;5079689;28;20048;-54
2020/12/05 06:52:34;;;;;;;27.15;17.00;;;;;;;8.33;67.46;98427.41;5061595;28;20098;-54
2020/12/05 06:55:07;;;;;;;38.92;20.08;;;;;;;8.32;67.74;98425.72;5078818;28;20128;-54
2020/12/05 06:57:33;;;;;;;61.08;33.50;;;;;;;8.28;68.17;98438.91;5078310;28;20059;-54
2020/12/05 07:00:18;;;;;;;68.47;39.10;;;;;;;8.35;67.92;98432.56;5078900;28;20071;-54
2020/12/05 07:02:57;;;;;;;30.42;18.45;;;;;;;8.33;67.65;98430.00;5078720;28;20064;-54
2020/12/05 07:05:24;;;;;;;30.48;18.48;;;;;;;8.30;68.14;98435.34;5078400;28;20040;-53
2020/12/05 07:07:52;;;;;;;44.40;25.23;;;;;;;8.43;67.42;98447.06;5079003;28;20059;-54
2020/12/05 07:10:18;;;;;;;36.28;23.98;;;;;;;8.45;67.73;98443.53;5078967;28;20049;-54
2020/12/05 07:12:44;;;;;;;41.22;24.35;;;;;;;8.48;67.74;98444.25;5078980;28;20053;-54
2020/12/05 07:15:26;;;;;;;43.40;25.27;;;;;;;8.48;67.17;98439.03;5078634;28;20069;-54
2020/12/05 07:17:53;;;;;;;48.63;29.90;;;;;;;8.44;67.63;98453.13;5078808;28;20037;-54
2020/12/05 07:20:19;;;;;;;42.42;24.88;;;;;;;8.47;67.69;98447.78;5078749;28;20048;-54
2020/12/05 07:22:46;;;;;;;41.38;22.65;;;;;;;8.58;67.37;98463.03;5061286;28;20463;-54
2020/12/05 07:25:12;;;;;;;41.50;23.95;;;;;;;8.50;67.54;98458.09;5078668;28;20055;-54
2020/12/05 07:27:38;;;;;;;40.25;22.25;;;;;;;8.59;67.43;98467.34;5078382;28;20123;-54
2020/12/05 07:30:05;;;;;;;37.97;22.77;;;;;;;8.59;67.43;98462.13;5078350;28;20105;-54
2020/12/05 07:32:34;;;;;;;36.70;23.02;;;;;;;8.61;67.27;98461.19;5079453;28;20053;-54
2020/12/05 07:35:00;;;;;;;33.35;20.08;;;;;;;8.64;67.04;98476.72;5078320;28;20048;-54
2020/12/05 07:37:27;;;;;;;27.10;16.95;;;;;;;8.83;66.74;98468.16;5077859;28;20055;-54
2020/12/05 07:39:53;;;;;;;39.05;24.45;;;;;;;8.77;67.20;98487.50;5078407;28;20052;-54
2020/12/05 07:42:19;;;;;;;35.47;22.17;;;;;;;8.85;66.83;98469.81;5078445;28;20045;-54
2020/12/05 07:44:45;;;;;;;30.73;18.98;;;;;;;8.86;66.64;98476.72;5060749;28;20087;-54
2020/12/05 07:47:18;;;;;;;58.03;30.67;;;;;;;8.82;66.73;98471.69;5077056;28;20036;-54
2020/12/05 07:49:53;;;;;;;47.13;27.40;;;;;;;8.98;66.43;98471.94;5077373;28;20062;-54
2020/12/05 07:52:22;;;;;;;74.65;36.80;;;;;;;8.91;66.50;98481.78;5077900;28;20455;-54
2020/12/05 07:54:56;;;;;;;71.78;35.38;;;;;;;9.07;66.02;98471.56;5077298;28;20055;-54
2020/12/05 07:57:29;;;;;;;61.20;34.33;;;;;;;8.98;66.38;98482.38;5076884;28;20129;-54
2020/12/05 08:00:08;;;;;;;46.80;24.75;;;;;;;9.02;66.05;98486.56;5060903;28;20044;-54
2020/12/05 08:02:33;;;;;;;52.72;27.77;;;;;;;9.07;66.03;98492.47;5076737;28;20064;-54
2020/12/05 08:05:07;;;;;;;65.68;32.97;;;;;;;9.16;65.72;98497.31;5077548;28;20064;-54
2020/12/05 08:07:41;;;;;;;33.88;19.77;;;;;;;9.23;65.61;98495.28;5077845;28;20045;-54
2020/12/05 08:10:15;;;;;;;36.00;18.58;;;;;;;9.26;65.43;98503.88;5077562;28;20365;-54
2020/12/05 08:12:43;;;;;;;47.03;23.90;;;;;;;9.17;65.91;98506.03;5077902;28;20041;-54
2020/12/05 08:15:19;;;;;;;43.38;20.83;;;;;;;9.25;65.72;98504.78;5077784;28;20044;-54
2020/12/05 08:17:45;;;;;;;48.15;19.88;;;;;;;9.30;65.61;98504.59;5075901;28;20108;-54
2020/12/05 08:20:12;;;;;;;61.00;27.83;;;;;;;9.24;65.85;98503.09;5077348;28;20335;-54
2020/12/05 08:22:38;;;;;;;39.05;22.08;;;;;;;9.36;65.49;98510.44;5060251;28;20123;-54
2020/12/05 08:25:05;;;;;;;63.85;23.77;;;;;;;9.53;65.24;98521.97;5076541;28;20381;-54
2020/12/05 08:27:30;;;;;;;49.17;23.98;;;;;;;9.37;65.68;98521.75;5077590;28;20115;-54
2020/12/05 08:29:56;;;;;;;42.72;21.38;;;;;;;9.52;65.06;98530.69;5076330;28;20550;-54
2020/12/05 08:32:23;;;;;;;33.25;16.55;;;;;;;9.56;65.10;98546.22;5076497;28;20119;-54
2020/12/05 08:34:49;;;;;;;41.08;19.10;;;;;;;9.63;65.31;98543.34;5077360;28;20044;-54
2020/12/05 08:37:25;;;;;;;38.65;18.85;;;;;;;9.72;64.62;98549.06;5076989;28;20514;-55
2020/12/05 08:39:51;;;;;;;36.72;17.02;;;;;;;9.66;65.22;98553.69;5076079;28;20070;-54
2020/12/05 08:42:17;;;;;;;32.42;17.02;;;;;;;9.71;65.18;98551.72;5076897;28;20080;-54
2020/12/05 08:44:42;;;;;;;30.20;16.17;;;;;;;9.77;65.14;98560.16;5077286;28;20052;-48
2020/12/05 08:47:08;;;;;;;25.73;14.35;;;;;;;9.92;64.27;98563.06;5076973;28;20044;-47
2020/12/05 08:49:35;;;;;;;34.28;17.55;;;;;;;9.94;64.45;98564.66;5059431;28;20051;-47
2020/12/05 08:52:01;;;;;;;33.45;19.15;;;;;;;10.13;63.57;98563.91;5077287;28;20113;-47
2020/12/05 08:54:27;;;;;;;46.25;23.75;;;;;;;10.09;64.18;98564.97;5059913;28;20405;-54
2020/12/05 08:57:08;;;;;;;29.30;17.73;;;;;;;10.16;63.62;98572.47;5076662;28;20463;-54
2020/12/05 08:59:34;;;;;;;54.83;22.85;;;;;;;10.20;63.72;98578.41;5076723;28;20049;-54
2020/12/05 09:02:00;;;;;;;66.30;25.27;;;;;;;10.15;64.11;98577.78;5075578;28;20090;-55
2020/12/05 09:04:30;;;;;;;37.03;19.13;;;;;;;10.40;63.23;98577.56;5076801;28;20044;-55
2020/12/05 09:07:16;;;;;;;42.72;18.55;;;;;;;10.40;63.30;98588.06;5076311;28;20048;-55
2020/12/05 09:09:44;;;;;;;48.53;20.88;;;;;;;10.45;63.39;98599.19;5076763;28;20352;-55
2020/12/05 09:12:11;;;;;;;65.28;21.90;;;;;;;10.42;63.70;98604.56;5076456;28;20370;-54
2020/12/05 09:14:37;;;;;;;35.58;16.70;;;;;;;10.61;62.84;98600.22;5076414;28;20416;-55
2020/12/05 09:17:03;;;;;;;41.63;36.75;;;;;;;10.68;62.63;98606.88;5076622;28;20131;-55
2020/12/05 09:19:31;;;;;;;62.95;32.70;;;;;;;10.65;62.91;98614.00;5076375;28;20098;-47
2020/12/05 09:21:57;;;;;;;49.63;26.48;;;;;;;10.70;62.54;98610.28;5076618;28;20048;-47
2020/12/05 09:24:23;;;;;;;56.08;22.77;;;;;;;10.78;62.23;98604.69;5076579;28;20053;-47
2020/12/05 09:26:58;;;;;;;64.82;25.50;;;;;;;10.73;62.60;98609.31;5076090;28;20356;-47
2020/12/05 09:29:24;;;;;;;78.55;29.10;;;;;;;10.76;62.46;98610.00;5075061;28;20072;-47
2020/12/05 09:31:51;;;;;;;73.45;31.27;;;;;;;10.83;62.18;98617.59;5076433;28;20062;-47
2020/12/05 09:34:33;;;;;;;38.20;17.00;;;;;;;10.88;61.67;98624.31;5076081;28;20052;-47
2020/12/05 09:37:00;;;;;;;57.28;23.85;;;;;;;10.96;61.63;98623.97;5059460;28;20117;-47
2020/12/05 09:39:25;;;;;;;57.72;24.85;;;;;;;11.05;61.33;98636.69;5076165;28;20428;-54
2020/12/05 09:41:51;;;;;;;31.67;17.13;;;;;;;10.97;61.57;98636.16;5075207;28;20440;-55
2020/12/05 09:44:17;;;;;;;25.13;13.70;;;;;;;11.11;61.04;98644.22;5076013;28;20056;-55
2020/12/05 09:46:43;;;;;;;57.28;24.83;;;;;;;11.02;61.69;98628.94;5076193;28;20048;-55
2020/12/05 09:49:09;;;;;;;82.63;34.40;;;;;;;11.06;61.79;98629.66;5076205;28;20059;-55
2020/12/05 09:51:35;;;;;;;51.05;26.05;;;;;;;11.14;61.38;98619.66;5075770;28;20056;-55
2020/12/05 09:54:00;;;;;;;77.95;39.15;;;;;;;11.16;61.15;98605.56;5076206;28;20079;-55
2020/12/05 09:56:26;;;;;;;73.65;36.20;;;;;;;11.21;61.39;98602.72;5075909;28;20061;-55
2020/12/05 09:58:52;;;;;;;63.63;33.80;;;;;;;11.12;61.79;98603.19;5076498;28;20488;-55
2020/12/05 10:01:18;;;;;;;47.72;23.70;;;;;;;11.19;61.55;98592.31;5075065;28;20090;-55
2020/12/05 10:03:43;;;;;;;30.30;18.02;;;;;;;11.33;60.88;98591.66;5075259;28;20063;-55
2020/12/05 10:06:10;;;;;;;44.28;21.02;;;;;;;11.18;61.71;98588.00;5076029;28;20121;-55
2020/12/05 10:08:35;;;;;;;48.05;25.92;;;;;;;11.32;61.10;98584.75;5076071;28;20436;-55
2020/12/05 10:11:01;;;;;;;121.40;71.15;;;;;;;11.41;61.08;98580.84;5075131;28;20052;-55
2020/12/05 10:13:27;;;;;;;60.35;37.33;;;;;;;11.36;61.05;98585.44;5075684;28;20049;-55
2020/12/05 10:15:53;;;;;;;75.68;43.83;;;;;;;11.32;61.42;98583.88;5076010;28;20079;-55
2020/12/05 10:18:18;;;;;;;31.38;19.48;;;;;;;11.48;60.54;98594.50;5074963;28;20036;-55
2020/12/05 10:20:45;;;;;;;32.10;19.00;;;;;;;11.40;61.33;98586.97;5075656;28;20510;-55
2020/12/05 10:23:10;;;;;;;33.22;18.70;;;;;;;11.60;60.35;98594.75;5074784;28;20048;-48
2020/12/05 10:25:36;;;;;;;43.30;23.33;;;;;;;11.49;61.22;98599.66;5075840;28;20109;-47
2020/12/05 10:28:02;;;;;;;46.67;29.23;;;;;;;11.51;61.43;98589.97;5075652;28;20345;-47
2020/12/05 10:30:28;;;;;;;37.75;21.88;;;;;;;11.80;60.62;98593.78;5074741;28;20040;-47
2020/12/05 10:32:54;;;;;;;35.28;19.60;;;;;;;11.96;60.19;98590.41;5075605;28;20036;-47
2020/12/05 10:35:20;;;;;;;38.03;24.10;;;;;;;12.10;60.25;98601.94;5075677;28;20158;-56
2020/12/05 10:37:45;;;;;;;35.75;22.60;;;;;;;12.19;59.84;98603.25;5075585;28;20056;-56
2020/12/05 10:40:11;;;;;;;30.13;17.15;;;;;;;12.45;58.67;98609.81;5076034;28;20052;-48
2020/12/05 10:42:37;;;;;;;22.65;13.43;;;;;;;12.51;57.98;98616.50;5079579;28;20086;-48
2020/12/05 10:45:03;;;;;;;33.22;19.20;;;;;;;12.30;58.79;98616.66;5079112;28;20044;-47
2020/12/05 10:47:29;;;;;;;23.75;14.63;;;;;;;12.38;58.67;98619.78;5079465;28;20072;-47
2020/12/05 10:49:55;;;;;;;29.98;16.58;;;;;;;12.37;59.10;98617.22;5078281;28;20075;-48
2020/12/05 10:52:21;;;;;;;25.35;15.63;;;;;;;12.35;58.72;98619.94;5079098;28;20437;-48
2020/12/05 10:54:46;;;;;;;22.63;13.68;;;;;;;12.36;59.03;98623.41;5078423;28;20059;-47
2020/12/05 10:57:12;;;;;;;35.63;20.48;;;;;;;12.29;59.09;98628.13;5079254;28;20045;-47
2020/12/05 10:59:38;;;;;;;40.35;24.38;;;;;;;12.22;59.23;98633.72;5078844;28;20053;-47
2020/12/05 11:02:04;;;;;;;29.52;19.15;;;;;;;12.19;59.47;98631.25;5078837;28;20110;-47
2020/12/05 11:04:29;;;;;;;20.73;13.30;;;;;;;12.19;59.28;98637.38;5079133;28;20048;-47
2020/12/05 11:06:55;;;;;;;19.55;12.60;;;;;;;12.19;59.67;98641.75;5078782;28;20042;-47
2020/12/05 11:09:21;;;;;;;24.50;14.15;;;;;;;12.12;59.76;98655.22;5079034;28;20063;-47
2020/12/05 11:11:47;;;;;;;30.80;18.00;;;;;;;12.09;59.83;98657.09;5078779;28;20053;-47
2020/12/05 11:14:13;;;;;;;25.55;15.65;;;;;;;12.08;59.61;98655.41;5078990;28;20059;-47
2020/12/05 11:16:38;;;;;;;37.50;19.17;;;;;;;12.07;59.76;98645.84;5078590;28;20419;-47
2020/12/05 11:19:04;;;;;;;38.78;21.35;;;;;;;12.00;60.06;98649.72;5078571;28;20540;-47
2020/12/05 11:21:30;;;;;;;41.15;22.00;;;;;;;11.97;60.15;98655.97;5078732;28;20052;-47
2020/12/05 11:23:56;;;;;;;43.88;22.05;;;;;;;11.99;60.27;98659.38;5079107;28;20094;-47
2020/12/05 11:26:22;;;;;;;37.45;19.42;;;;;;;12.00;59.86;98661.06;5078419;28;20045;-47
2020/12/05 11:28:49;;;;;;;50.35;25.02;;;;;;;12.02;59.56;98669.69;5078452;28;20060;-47